sensor_id;sensor_type;location;lat;lon;timestamp;P1;durP1;ratioP1;P2;durP2;ratioP2
36233;SDS011;43467;50.890;5.982;2023-04-25T00:00:19;14.93;;;5.72;;
36233;SDS011;43467;50.890;5.982;2023-04-25T00:02:45;15.85;;;6.10;;
36233;SDS011;43467;50.890;5.982;2023-04-25T00:05:11;14.25;;;5.25;;
36233;SDS011;43467;50.890;5.982;2023-04-25T00:07:37;16.08;;;5.55;;
36233;SDS011;43467;50.890;5.982;2023-04-25T00:10:03;18.90;;;5.85;;
36233;SDS011;43467;50.890;5.982;2023-04-25T00:12:29;12.20;;;5.45;;
36233;SDS011;43467;50.890;5.982;2023-04-25T00:14:54;14.45;;;5.90;;
36233;SDS011;43467;50.890;5.982;2023-04-25T00:17:22;17.13;;;5.72;;
36233;SDS011;43467;50.890;5.982;2023-04-25T00:19:50;15.20;;;4.63;;
36233;SDS011;43467;50.890;5.982;2023-04-25T00:22:15;20.20;;;6.82;;
36233;SDS011;43467;50.890;5.982;2023-04-25T00:24:42;16.02;;;6.05;;
36233;SDS011;43467;50.890;5.982;2023-04-25T00:27:08;19.55;;;6.10;;
36233;SDS011;43467;50.890;5.982;2023-04-25T00:29:33;15.90;;;5.63;;
36233;SDS011;43467;50.890;5.982;2023-04-25T00:31:59;14.18;;;5.80;;
36233;SDS011;43467;50.890;5.982;2023-04-25T00:34:24;17.23;;;5.80;;
36233;SDS011;43467;50.890;5.982;2023-04-25T00:36:49;12.68;;;5.43;;
36233;SDS011;43467;50.890;5.982;2023-04-25T00:39:15;14.93;;;5.18;;
36233;SDS011;43467;50.890;5.982;2023-04-25T00:41:40;15.23;;;6.32;;
36233;SDS011;43467;50.890;5.982;2023-04-25T00:44:06;14.73;;;5.78;;
36233;SDS011;43467;50.890;5.982;2023-04-25T00:46:35;16.48;;;5.88;;
36233;SDS011;43467;50.890;5.982;2023-04-25T00:49:00;17.73;;;5.85;;
36233;SDS011;43467;50.890;5.982;2023-04-25T00:51:26;16.00;;;5.90;;
36233;SDS011;43467;50.890;5.982;2023-04-25T00:53:51;17.05;;;5.97;;
36233;SDS011;43467;50.890;5.982;2023-04-25T00:56:17;17.65;;;5.32;;
36233;SDS011;43467;50.890;5.982;2023-04-25T00:58:43;13.13;;;5.85;;
36233;SDS011;43467;50.890;5.982;2023-04-25T01:01:09;13.07;;;5.00;;
36233;SDS011;43467;50.890;5.982;2023-04-25T01:03:37;18.30;;;6.07;;
36233;SDS011;43467;50.890;5.982;2023-04-25T01:06:10;24.50;;;6.85;;
36233;SDS011;43467;50.890;5.982;2023-04-25T01:08:37;21.00;;;6.10;;
36233;SDS011;43467;50.890;5.982;2023-04-25T01:11:04;16.98;;;6.05;;
36233;SDS011;43467;50.890;5.982;2023-04-25T01:13:30;19.25;;;6.60;;
36233;SDS011;43467;50.890;5.982;2023-04-25T01:15:57;22.52;;;6.70;;
36233;SDS011;43467;50.890;5.982;2023-04-25T01:18:23;19.35;;;6.35;;
36233;SDS011;43467;50.890;5.982;2023-04-25T01:20:50;17.20;;;6.43;;
36233;SDS011;43467;50.890;5.982;2023-04-25T01:23:17;20.55;;;6.30;;
36233;SDS011;43467;50.890;5.982;2023-04-25T01:25:44;20.15;;;6.00;;
36233;SDS011;43467;50.890;5.982;2023-04-25T01:28:10;17.58;;;5.97;;
36233;SDS011;43467;50.890;5.982;2023-04-25T01:30:36;18.45;;;6.53;;
36233;SDS011;43467;50.890;5.982;2023-04-25T01:33:03;18.30;;;7.15;;
36233;SDS011;43467;50.890;5.982;2023-04-25T01:35:30;14.93;;;5.75;;
36233;SDS011;43467;50.890;5.982;2023-04-25T01:37:57;26.27;;;6.85;;
36233;SDS011;43467;50.890;5.982;2023-04-25T01:40:22;33.08;;;6.30;;
36233;SDS011;43467;50.890;5.982;2023-04-25T01:42:49;20.67;;;6.57;;
36233;SDS011;43467;50.890;5.982;2023-04-25T01:45:15;21.02;;;6.45;;
36233;SDS011;43467;50.890;5.982;2023-04-25T01:47:42;24.38;;;6.93;;
36233;SDS011;43467;50.890;5.982;2023-04-25T01:50:09;17.50;;;6.68;;
36233;SDS011;43467;50.890;5.982;2023-04-25T01:52:36;25.40;;;6.88;;
36233;SDS011;43467;50.890;5.982;2023-04-25T01:55:01;17.27;;;5.68;;
36233;SDS011;43467;50.890;5.982;2023-04-25T01:57:27;19.48;;;6.35;;
36233;SDS011;43467;50.890;5.982;2023-04-25T01:59:59;17.77;;;6.20;;
36233;SDS011;43467;50.890;5.982;2023-04-25T02:02:26;22.90;;;6.28;;
36233;SDS011;43467;50.890;5.982;2023-04-25T02:04:51;21.02;;;6.35;;
36233;SDS011;43467;50.890;5.982;2023-04-25T02:07:17;16.10;;;7.00;;
36233;SDS011;43467;50.890;5.982;2023-04-25T02:09:42;22.88;;;6.05;;
36233;SDS011;43467;50.890;5.982;2023-04-25T02:12:09;15.80;;;5.90;;
36233;SDS011;43467;50.890;5.982;2023-04-25T02:14:34;22.42;;;5.95;;
36233;SDS011;43467;50.890;5.982;2023-04-25T02:17:00;14.60;;;6.13;;
36233;SDS011;43467;50.890;5.982;2023-04-25T02:19:25;18.83;;;6.32;;
36233;SDS011;43467;50.890;5.982;2023-04-25T02:21:51;19.60;;;6.03;;
36233;SDS011;43467;50.890;5.982;2023-04-25T02:24:16;22.52;;;6.28;;
36233;SDS011;43467;50.890;5.982;2023-04-25T02:26:42;20.60;;;7.20;;
36233;SDS011;43467;50.890;5.982;2023-04-25T02:29:09;21.42;;;6.57;;
36233;SDS011;43467;50.890;5.982;2023-04-25T02:31:35;13.23;;;5.45;;
36233;SDS011;43467;50.890;5.982;2023-04-25T02:34:00;17.77;;;5.97;;
36233;SDS011;43467;50.890;5.982;2023-04-25T02:36:25;17.65;;;6.43;;
36233;SDS011;43467;50.890;5.982;2023-04-25T02:38:51;21.27;;;6.25;;
36233;SDS011;43467;50.890;5.982;2023-04-25T02:41:17;16.17;;;5.38;;
36233;SDS011;43467;50.890;5.982;2023-04-25T02:43:42;25.73;;;7.05;;
36233;SDS011;43467;50.890;5.982;2023-04-25T02:46:08;20.08;;;6.10;;
36233;SDS011;43467;50.890;5.982;2023-04-25T02:48:33;22.42;;;6.50;;
36233;SDS011;43467;50.890;5.982;2023-04-25T02:50:59;19.40;;;5.82;;
36233;SDS011;43467;50.890;5.982;2023-04-25T02:53:24;18.10;;;6.03;;
36233;SDS011;43467;50.890;5.982;2023-04-25T02:55:50;19.23;;;6.32;;
36233;SDS011;43467;50.890;5.982;2023-04-25T02:58:17;23.65;;;6.28;;
36233;SDS011;43467;50.890;5.982;2023-04-25T03:00:42;19.38;;;5.88;;
36233;SDS011;43467;50.890;5.982;2023-04-25T03:03:08;18.17;;;6.05;;
36233;SDS011;43467;50.890;5.982;2023-04-25T03:05:33;25.17;;;6.65;;
36233;SDS011;43467;50.890;5.982;2023-04-25T03:07:59;20.45;;;6.07;;
36233;SDS011;43467;50.890;5.982;2023-04-25T03:10:24;15.60;;;6.10;;
36233;SDS011;43467;50.890;5.982;2023-04-25T03:12:50;17.38;;;5.30;;
36233;SDS011;43467;50.890;5.982;2023-04-25T03:15:15;21.40;;;6.35;;
36233;SDS011;43467;50.890;5.982;2023-04-25T03:17:41;19.92;;;5.35;;
36233;SDS011;43467;50.890;5.982;2023-04-25T03:20:07;20.45;;;5.75;;
36233;SDS011;43467;50.890;5.982;2023-04-25T03:22:33;16.50;;;5.53;;
36233;SDS011;43467;50.890;5.982;2023-04-25T03:24:59;18.27;;;5.70;;
36233;SDS011;43467;50.890;5.982;2023-04-25T03:27:24;14.77;;;5.72;;
36233;SDS011;43467;50.890;5.982;2023-04-25T03:29:49;18.20;;;6.13;;
36233;SDS011;43467;50.890;5.982;2023-04-25T03:32:15;20.70;;;6.38;;
36233;SDS011;43467;50.890;5.982;2023-04-25T03:34:40;14.40;;;5.85;;
36233;SDS011;43467;50.890;5.982;2023-04-25T03:37:06;27.85;;;5.75;;
36233;SDS011;43467;50.890;5.982;2023-04-25T03:39:31;24.42;;;6.85;;
36233;SDS011;43467;50.890;5.982;2023-04-25T03:41:57;12.73;;;6.05;;
36233;SDS011;43467;50.890;5.982;2023-04-25T03:44:22;17.77;;;6.22;;
36233;SDS011;43467;50.890;5.982;2023-04-25T03:46:49;15.07;;;5.85;;
36233;SDS011;43467;50.890;5.982;2023-04-25T03:49:14;18.23;;;5.45;;
36233;SDS011;43467;50.890;5.982;2023-04-25T03:51:40;18.45;;;6.20;;
36233;SDS011;43467;50.890;5.982;2023-04-25T03:54:05;18.67;;;6.32;;
36233;SDS011;43467;50.890;5.982;2023-04-25T03:56:32;17.50;;;6.43;;
36233;SDS011;43467;50.890;5.982;2023-04-25T03:58:57;20.13;;;6.18;;
36233;SDS011;43467;50.890;5.982;2023-04-25T04:01:23;26.45;;;7.05;;
36233;SDS011;43467;50.890;5.982;2023-04-25T04:03:48;23.83;;;6.43;;
36233;SDS011;43467;50.890;5.982;2023-04-25T04:06:14;18.58;;;6.25;;
36233;SDS011;43467;50.890;5.982;2023-04-25T04:08:39;22.55;;;6.70;;
36233;SDS011;43467;50.890;5.982;2023-04-25T04:11:05;16.83;;;6.53;;
36233;SDS011;43467;50.890;5.982;2023-04-25T04:13:31;24.83;;;6.82;;
36233;SDS011;43467;50.890;5.982;2023-04-25T04:15:56;22.50;;;5.97;;
36233;SDS011;43467;50.890;5.982;2023-04-25T04:18:22;26.98;;;7.35;;
36233;SDS011;43467;50.890;5.982;2023-04-25T04:20:48;17.50;;;6.47;;
36233;SDS011;43467;50.890;5.982;2023-04-25T04:23:14;20.17;;;6.53;;
36233;SDS011;43467;50.890;5.982;2023-04-25T04:25:39;18.75;;;6.05;;
36233;SDS011;43467;50.890;5.982;2023-04-25T04:28:05;20.55;;;6.70;;
36233;SDS011;43467;50.890;5.982;2023-04-25T04:30:31;29.85;;;7.45;;
36233;SDS011;43467;50.890;5.982;2023-04-25T04:32:58;18.98;;;6.10;;
36233;SDS011;43467;50.890;5.982;2023-04-25T04:35:25;21.50;;;6.68;;
36233;SDS011;43467;50.890;5.982;2023-04-25T04:37:51;24.13;;;6.80;;
36233;SDS011;43467;50.890;5.982;2023-04-25T04:40:17;24.52;;;7.25;;
36233;SDS011;43467;50.890;5.982;2023-04-25T04:42:43;24.08;;;6.70;;
36233;SDS011;43467;50.890;5.982;2023-04-25T04:45:10;17.30;;;6.75;;
36233;SDS011;43467;50.890;5.982;2023-04-25T04:47:36;30.05;;;6.82;;
36233;SDS011;43467;50.890;5.982;2023-04-25T04:50:01;18.60;;;6.80;;
36233;SDS011;43467;50.890;5.982;2023-04-25T04:52:27;20.10;;;7.15;;
36233;SDS011;43467;50.890;5.982;2023-04-25T04:54:53;18.38;;;5.85;;
36233;SDS011;43467;50.890;5.982;2023-04-25T04:57:18;24.55;;;7.40;;
36233;SDS011;43467;50.890;5.982;2023-04-25T04:59:44;22.20;;;7.40;;
36233;SDS011;43467;50.890;5.982;2023-04-25T05:02:10;27.13;;;8.00;;
36233;SDS011;43467;50.890;5.982;2023-04-25T05:04:35;17.88;;;6.28;;
36233;SDS011;43467;50.890;5.982;2023-04-25T05:07:00;24.40;;;8.10;;
36233;SDS011;43467;50.890;5.982;2023-04-25T05:09:26;18.90;;;7.32;;
36233;SDS011;43467;50.890;5.982;2023-04-25T05:11:52;21.23;;;7.03;;
36233;SDS011;43467;50.890;5.982;2023-04-25T05:14:17;24.90;;;6.65;;
36233;SDS011;43467;50.890;5.982;2023-04-25T05:16:43;22.60;;;7.50;;
36233;SDS011;43467;50.890;5.982;2023-04-25T05:19:09;21.98;;;7.25;;
36233;SDS011;43467;50.890;5.982;2023-04-25T05:21:34;22.23;;;6.97;;
36233;SDS011;43467;50.890;5.982;2023-04-25T05:24:00;23.90;;;6.65;;
36233;SDS011;43467;50.890;5.982;2023-04-25T05:26:26;20.13;;;6.20;;
36233;SDS011;43467;50.890;5.982;2023-04-25T05:28:56;20.60;;;7.13;;
36233;SDS011;43467;50.890;5.982;2023-04-25T05:31:22;25.48;;;7.28;;
36233;SDS011;43467;50.890;5.982;2023-04-25T05:33:47;17.33;;;6.35;;
36233;SDS011;43467;50.890;5.982;2023-04-25T05:36:13;27.23;;;6.70;;
36233;SDS011;43467;50.890;5.982;2023-04-25T05:38:38;21.55;;;7.13;;
36233;SDS011;43467;50.890;5.982;2023-04-25T05:41:03;24.33;;;7.00;;
36233;SDS011;43467;50.890;5.982;2023-04-25T05:43:29;22.90;;;7.03;;
36233;SDS011;43467;50.890;5.982;2023-04-25T05:45:54;21.75;;;6.28;;
36233;SDS011;43467;50.890;5.982;2023-04-25T05:48:20;18.58;;;6.03;;
36233;SDS011;43467;50.890;5.982;2023-04-25T05:50:45;22.58;;;7.07;;
36233;SDS011;43467;50.890;5.982;2023-04-25T05:53:11;28.98;;;7.25;;
36233;SDS011;43467;50.890;5.982;2023-04-25T05:55:36;14.65;;;5.35;;
36233;SDS011;43467;50.890;5.982;2023-04-25T05:58:01;20.88;;;6.00;;
36233;SDS011;43467;50.890;5.982;2023-04-25T06:00:27;17.33;;;6.10;;
36233;SDS011;43467;50.890;5.982;2023-04-25T06:02:53;16.52;;;6.03;;
36233;SDS011;43467;50.890;5.982;2023-04-25T06:05:19;16.17;;;5.60;;
36233;SDS011;43467;50.890;5.982;2023-04-25T06:07:45;19.20;;;6.72;;
36233;SDS011;43467;50.890;5.982;2023-04-25T06:10:10;22.02;;;5.80;;
36233;SDS011;43467;50.890;5.982;2023-04-25T06:12:36;25.80;;;6.82;;
36233;SDS011;43467;50.890;5.982;2023-04-25T06:15:01;19.65;;;5.90;;
36233;SDS011;43467;50.890;5.982;2023-04-25T06:17:27;24.65;;;6.90;;
36233;SDS011;43467;50.890;5.982;2023-04-25T06:19:52;20.33;;;6.50;;
36233;SDS011;43467;50.890;5.982;2023-04-25T06:22:18;23.55;;;5.90;;
36233;SDS011;43467;50.890;5.982;2023-04-25T06:24:43;23.92;;;5.97;;
36233;SDS011;43467;50.890;5.982;2023-04-25T06:27:09;20.67;;;5.70;;
36233;SDS011;43467;50.890;5.982;2023-04-25T06:29:34;28.88;;;6.47;;
36233;SDS011;43467;50.890;5.982;2023-04-25T06:32:00;23.58;;;6.43;;
36233;SDS011;43467;50.890;5.982;2023-04-25T06:34:25;21.92;;;5.88;;
36233;SDS011;43467;50.890;5.982;2023-04-25T06:36:50;26.27;;;6.35;;
36233;SDS011;43467;50.890;5.982;2023-04-25T06:39:16;21.38;;;5.22;;
36233;SDS011;43467;50.890;5.982;2023-04-25T06:41:41;17.33;;;5.40;;
36233;SDS011;43467;50.890;5.982;2023-04-25T06:44:07;18.13;;;5.40;;
36233;SDS011;43467;50.890;5.982;2023-04-25T06:46:32;16.02;;;4.78;;
36233;SDS011;43467;50.890;5.982;2023-04-25T06:48:57;17.15;;;5.25;;
36233;SDS011;43467;50.890;5.982;2023-04-25T06:51:23;22.55;;;6.32;;
36233;SDS011;43467;50.890;5.982;2023-04-25T06:53:49;21.58;;;5.40;;
36233;SDS011;43467;50.890;5.982;2023-04-25T06:56:15;15.40;;;5.72;;
36233;SDS011;43467;50.890;5.982;2023-04-25T06:58:41;19.90;;;5.78;;
36233;SDS011;43467;50.890;5.982;2023-04-25T07:01:06;16.77;;;5.10;;
36233;SDS011;43467;50.890;5.982;2023-04-25T07:03:32;16.58;;;4.97;;
36233;SDS011;43467;50.890;5.982;2023-04-25T07:05:57;25.15;;;6.22;;
36233;SDS011;43467;50.890;5.982;2023-04-25T07:08:22;18.50;;;5.03;;
36233;SDS011;43467;50.890;5.982;2023-04-25T07:10:48;16.80;;;4.30;;
36233;SDS011;43467;50.890;5.982;2023-04-25T07:13:13;21.88;;;4.63;;
36233;SDS011;43467;50.890;5.982;2023-04-25T07:15:39;18.90;;;5.07;;
36233;SDS011;43467;50.890;5.982;2023-04-25T07:18:04;16.23;;;4.30;;
36233;SDS011;43467;50.890;5.982;2023-04-25T07:20:30;14.95;;;4.95;;
36233;SDS011;43467;50.890;5.982;2023-04-25T07:22:56;14.85;;;4.57;;
36233;SDS011;43467;50.890;5.982;2023-04-25T07:25:21;20.95;;;4.65;;
36233;SDS011;43467;50.890;5.982;2023-04-25T07:27:47;17.98;;;4.82;;
36233;SDS011;43467;50.890;5.982;2023-04-25T07:30:13;18.63;;;4.53;;
36233;SDS011;43467;50.890;5.982;2023-04-25T07:32:38;20.05;;;4.80;;
36233;SDS011;43467;50.890;5.982;2023-04-25T07:35:04;18.48;;;4.45;;
36233;SDS011;43467;50.890;5.982;2023-04-25T07:37:31;13.20;;;4.32;;
36233;SDS011;43467;50.890;5.982;2023-04-25T07:39:57;13.52;;;4.35;;
36233;SDS011;43467;50.890;5.982;2023-04-25T07:42:22;18.85;;;4.97;;
36233;SDS011;43467;50.890;5.982;2023-04-25T07:44:48;15.25;;;4.30;;
36233;SDS011;43467;50.890;5.982;2023-04-25T07:47:13;16.35;;;4.18;;
36233;SDS011;43467;50.890;5.982;2023-04-25T07:49:39;15.00;;;4.22;;
36233;SDS011;43467;50.890;5.982;2023-04-25T07:52:05;18.45;;;4.55;;
36233;SDS011;43467;50.890;5.982;2023-04-25T07:54:31;15.02;;;4.05;;
36233;SDS011;43467;50.890;5.982;2023-04-25T07:56:57;15.02;;;4.55;;
36233;SDS011;43467;50.890;5.982;2023-04-25T07:59:23;14.10;;;4.55;;
36233;SDS011;43467;50.890;5.982;2023-04-25T08:01:48;16.80;;;3.53;;
36233;SDS011;43467;50.890;5.982;2023-04-25T08:04:14;10.10;;;3.47;;
36233;SDS011;43467;50.890;5.982;2023-04-25T08:06:39;11.15;;;3.42;;
36233;SDS011;43467;50.890;5.982;2023-04-25T08:09:05;12.00;;;3.97;;
36233;SDS011;43467;50.890;5.982;2023-04-25T08:11:31;17.52;;;3.92;;
36233;SDS011;43467;50.890;5.982;2023-04-25T08:13:57;14.27;;;3.42;;
36233;SDS011;43467;50.890;5.982;2023-04-25T08:16:22;22.00;;;3.65;;
36233;SDS011;43467;50.890;5.982;2023-04-25T08:18:47;15.82;;;4.00;;
36233;SDS011;43467;50.890;5.982;2023-04-25T08:21:14;14.38;;;3.63;;
36233;SDS011;43467;50.890;5.982;2023-04-25T08:23:40;12.82;;;3.33;;
36233;SDS011;43467;50.890;5.982;2023-04-25T08:26:05;17.55;;;3.90;;
36233;SDS011;43467;50.890;5.982;2023-04-25T08:28:31;14.40;;;3.75;;
36233;SDS011;43467;50.890;5.982;2023-04-25T08:30:57;10.98;;;3.88;;
36233;SDS011;43467;50.890;5.982;2023-04-25T08:33:22;10.88;;;4.32;;
36233;SDS011;43467;50.890;5.982;2023-04-25T08:35:48;14.70;;;3.50;;
36233;SDS011;43467;50.890;5.982;2023-04-25T08:38:13;17.38;;;3.53;;
36233;SDS011;43467;50.890;5.982;2023-04-25T08:40:39;21.70;;;3.92;;
36233;SDS011;43467;50.890;5.982;2023-04-25T08:43:06;12.98;;;3.60;;
36233;SDS011;43467;50.890;5.982;2023-04-25T08:45:38;15.75;;;3.80;;
36233;SDS011;43467;50.890;5.982;2023-04-25T08:48:10;9.68;;;2.90;;
36233;SDS011;43467;50.890;5.982;2023-04-25T08:50:42;10.88;;;3.45;;
36233;SDS011;43467;50.890;5.982;2023-04-25T08:53:14;8.73;;;3.33;;
36233;SDS011;43467;50.890;5.982;2023-04-25T08:55:44;12.80;;;3.45;;
36233;SDS011;43467;50.890;5.982;2023-04-25T08:58:11;14.15;;;3.60;;
36233;SDS011;43467;50.890;5.982;2023-04-25T09:00:38;16.13;;;3.65;;
36233;SDS011;43467;50.890;5.982;2023-04-25T09:03:04;16.33;;;3.88;;
36233;SDS011;43467;50.890;5.982;2023-04-25T09:05:29;12.88;;;3.45;;
36233;SDS011;43467;50.890;5.982;2023-04-25T09:07:55;12.75;;;3.60;;
36233;SDS011;43467;50.890;5.982;2023-04-25T09:10:21;10.02;;;3.53;;
36233;SDS011;43467;50.890;5.982;2023-04-25T09:13:03;9.20;;;3.65;;
36233;SDS011;43467;50.890;5.982;2023-04-25T09:15:32;13.77;;;4.38;;
36233;SDS011;43467;50.890;5.982;2023-04-25T09:17:58;11.35;;;3.97;;
36233;SDS011;43467;50.890;5.982;2023-04-25T09:20:24;13.50;;;4.28;;
36233;SDS011;43467;50.890;5.982;2023-04-25T09:23:00;15.30;;;3.80;;
36233;SDS011;43467;50.890;5.982;2023-04-25T09:25:33;10.00;;;3.67;;
36233;SDS011;43467;50.890;5.982;2023-04-25T09:28:03;19.50;;;4.15;;
36233;SDS011;43467;50.890;5.982;2023-04-25T09:30:33;9.90;;;3.25;;
36233;SDS011;43467;50.890;5.982;2023-04-25T09:33:09;9.90;;;3.58;;
36233;SDS011;43467;50.890;5.982;2023-04-25T09:38:11;15.73;;;3.75;;
36233;SDS011;43467;50.890;5.982;2023-04-25T09:40:39;15.10;;;3.97;;
36233;SDS011;43467;50.890;5.982;2023-04-25T09:43:18;11.13;;;3.60;;
36233;SDS011;43467;50.890;5.982;2023-04-25T09:45:45;12.50;;;3.92;;
36233;SDS011;43467;50.890;5.982;2023-04-25T09:48:16;13.93;;;3.72;;
36233;SDS011;43467;50.890;5.982;2023-04-25T09:51:07;16.77;;;4.10;;
36233;SDS011;43467;50.890;5.982;2023-04-25T09:53:41;12.57;;;3.83;;
36233;SDS011;43467;50.890;5.982;2023-04-25T09:56:09;8.85;;;3.50;;
36233;SDS011;43467;50.890;5.982;2023-04-25T09:58:36;12.45;;;3.88;;
36233;SDS011;43467;50.890;5.982;2023-04-25T10:01:04;8.75;;;3.60;;
36233;SDS011;43467;50.890;5.982;2023-04-25T10:03:31;13.70;;;4.32;;
36233;SDS011;43467;50.890;5.982;2023-04-25T10:06:02;11.52;;;4.32;;
36233;SDS011;43467;50.890;5.982;2023-04-25T10:08:31;9.98;;;3.40;;
36233;SDS011;43467;50.890;5.982;2023-04-25T10:11:01;11.93;;;3.33;;
36233;SDS011;43467;50.890;5.982;2023-04-25T10:13:32;12.07;;;3.70;;
36233;SDS011;43467;50.890;5.982;2023-04-25T10:15:59;18.65;;;4.00;;
36233;SDS011;43467;50.890;5.982;2023-04-25T10:18:28;10.20;;;3.72;;
36233;SDS011;43467;50.890;5.982;2023-04-25T10:20:59;16.58;;;4.13;;
36233;SDS011;43467;50.890;5.982;2023-04-25T10:23:26;11.57;;;3.88;;
36233;SDS011;43467;50.890;5.982;2023-04-25T10:25:54;9.52;;;3.50;;
36233;SDS011;43467;50.890;5.982;2023-04-25T10:28:20;11.60;;;4.03;;
36233;SDS011;43467;50.890;5.982;2023-04-25T10:30:58;14.05;;;4.00;;
36233;SDS011;43467;50.890;5.982;2023-04-25T10:36:12;11.77;;;3.63;;
36233;SDS011;43467;50.890;5.982;2023-04-25T10:38:39;11.32;;;3.80;;
36233;SDS011;43467;50.890;5.982;2023-04-25T10:41:08;12.27;;;3.50;;
36233;SDS011;43467;50.890;5.982;2023-04-25T10:43:43;12.23;;;4.20;;
36233;SDS011;43467;50.890;5.982;2023-04-25T10:46:26;15.02;;;3.55;;
36233;SDS011;43467;50.890;5.982;2023-04-25T10:48:56;12.93;;;4.35;;
36233;SDS011;43467;50.890;5.982;2023-04-25T10:51:26;15.60;;;4.03;;
36233;SDS011;43467;50.890;5.982;2023-04-25T10:54:05;21.50;;;3.95;;
36233;SDS011;43467;50.890;5.982;2023-04-25T10:59:12;12.27;;;4.20;;
36233;SDS011;43467;50.890;5.982;2023-04-25T11:01:44;8.38;;;2.90;;
36233;SDS011;43467;50.890;5.982;2023-04-25T11:04:24;9.05;;;2.83;;
36233;SDS011;43467;50.890;5.982;2023-04-25T11:09:28;10.30;;;2.80;;
36233;SDS011;43467;50.890;5.982;2023-04-25T11:11:57;14.20;;;3.35;;
36233;SDS011;43467;50.890;5.982;2023-04-25T11:14:23;9.73;;;2.25;;
36233;SDS011;43467;50.890;5.982;2023-04-25T11:16:53;12.10;;;3.03;;
36233;SDS011;43467;50.890;5.982;2023-04-25T11:19:20;9.60;;;3.55;;
36233;SDS011;43467;50.890;5.982;2023-04-25T11:21:46;9.90;;;2.88;;
36233;SDS011;43467;50.890;5.982;2023-04-25T11:24:11;13.65;;;2.65;;
36233;SDS011;43467;50.890;5.982;2023-04-25T11:26:37;12.13;;;3.15;;
36233;SDS011;43467;50.890;5.982;2023-04-25T11:29:02;8.77;;;2.83;;
36233;SDS011;43467;50.890;5.982;2023-04-25T11:31:28;8.95;;;3.38;;
36233;SDS011;43467;50.890;5.982;2023-04-25T11:33:56;9.80;;;2.55;;
36233;SDS011;43467;50.890;5.982;2023-04-25T11:36:23;16.00;;;3.83;;
36233;SDS011;43467;50.890;5.982;2023-04-25T11:38:50;9.20;;;2.88;;
36233;SDS011;43467;50.890;5.982;2023-04-25T11:41:16;8.15;;;2.70;;
36233;SDS011;43467;50.890;5.982;2023-04-25T11:43:43;7.82;;;2.55;;
36233;SDS011;43467;50.890;5.982;2023-04-25T11:46:09;9.00;;;2.72;;
36233;SDS011;43467;50.890;5.982;2023-04-25T11:48:38;11.52;;;3.17;;
36233;SDS011;43467;50.890;5.982;2023-04-25T11:51:05;8.25;;;2.42;;
36233;SDS011;43467;50.890;5.982;2023-04-25T11:53:30;8.02;;;2.65;;
36233;SDS011;43467;50.890;5.982;2023-04-25T11:55:56;7.53;;;2.58;;
36233;SDS011;43467;50.890;5.982;2023-04-25T11:58:21;7.97;;;2.72;;
36233;SDS011;43467;50.890;5.982;2023-04-25T12:00:46;9.77;;;2.80;;
36233;SDS011;43467;50.890;5.982;2023-04-25T12:03:12;7.45;;;2.58;;
36233;SDS011;43467;50.890;5.982;2023-04-25T12:05:38;6.63;;;2.30;;
36233;SDS011;43467;50.890;5.982;2023-04-25T12:08:11;8.23;;;3.00;;
36233;SDS011;43467;50.890;5.982;2023-04-25T12:10:39;7.10;;;2.42;;
36233;SDS011;43467;50.890;5.982;2023-04-25T12:13:18;10.75;;;2.80;;
36233;SDS011;43467;50.890;5.982;2023-04-25T12:15:45;7.95;;;2.47;;
36233;SDS011;43467;50.890;5.982;2023-04-25T12:18:11;7.93;;;2.70;;
36233;SDS011;43467;50.890;5.982;2023-04-25T12:20:36;9.20;;;3.10;;
36233;SDS011;43467;50.890;5.982;2023-04-25T12:23:02;10.55;;;3.00;;
36233;SDS011;43467;50.890;5.982;2023-04-25T12:25:40;9.27;;;2.90;;
36233;SDS011;43467;50.890;5.982;2023-04-25T12:28:20;12.52;;;3.47;;
36233;SDS011;43467;50.890;5.982;2023-04-25T12:31:04;11.07;;;3.20;;
36233;SDS011;43467;50.890;5.982;2023-04-25T12:33:32;7.63;;;2.70;;
36233;SDS011;43467;50.890;5.982;2023-04-25T12:35:59;10.48;;;2.85;;
36233;SDS011;43467;50.890;5.982;2023-04-25T12:38:29;7.53;;;2.78;;
36233;SDS011;43467;50.890;5.982;2023-04-25T12:40:57;11.55;;;2.78;;
36233;SDS011;43467;50.890;5.982;2023-04-25T12:43:23;8.02;;;2.58;;
36233;SDS011;43467;50.890;5.982;2023-04-25T12:45:49;6.75;;;2.25;;
36233;SDS011;43467;50.890;5.982;2023-04-25T12:48:16;6.97;;;2.83;;
36233;SDS011;43467;50.890;5.982;2023-04-25T12:50:41;9.05;;;3.30;;
36233;SDS011;43467;50.890;5.982;2023-04-25T12:53:07;5.65;;;2.67;;
36233;SDS011;43467;50.890;5.982;2023-04-25T12:55:33;8.40;;;2.95;;
36233;SDS011;43467;50.890;5.982;2023-04-25T12:57:58;8.80;;;2.80;;
36233;SDS011;43467;50.890;5.982;2023-04-25T13:00:23;7.78;;;3.00;;
36233;SDS011;43467;50.890;5.982;2023-04-25T13:02:49;9.00;;;2.53;;
36233;SDS011;43467;50.890;5.982;2023-04-25T13:05:15;8.27;;;2.83;;
36233;SDS011;43467;50.890;5.982;2023-04-25T13:07:40;10.30;;;3.15;;
36233;SDS011;43467;50.890;5.982;2023-04-25T13:10:06;9.75;;;2.70;;
36233;SDS011;43467;50.890;5.982;2023-04-25T13:12:32;8.90;;;3.08;;
36233;SDS011;43467;50.890;5.982;2023-04-25T13:14:58;10.43;;;3.42;;
36233;SDS011;43467;50.890;5.982;2023-04-25T13:17:23;7.10;;;2.30;;
36233;SDS011;43467;50.890;5.982;2023-04-25T13:19:49;10.10;;;2.85;;
36233;SDS011;43467;50.890;5.982;2023-04-25T13:22:14;5.63;;;2.30;;
36233;SDS011;43467;50.890;5.982;2023-04-25T13:24:41;7.93;;;3.22;;
36233;SDS011;43467;50.890;5.982;2023-04-25T13:27:07;10.43;;;2.83;;
36233;SDS011;43467;50.890;5.982;2023-04-25T13:29:32;7.20;;;2.65;;
36233;SDS011;43467;50.890;5.982;2023-04-25T13:32:00;7.47;;;2.50;;
36233;SDS011;43467;50.890;5.982;2023-04-25T13:34:26;5.25;;;2.15;;
36233;SDS011;43467;50.890;5.982;2023-04-25T13:36:52;8.48;;;2.88;;
36233;SDS011;43467;50.890;5.982;2023-04-25T13:39:18;4.47;;;2.13;;
36233;SDS011;43467;50.890;5.982;2023-04-25T13:41:43;8.15;;;2.65;;
36233;SDS011;43467;50.890;5.982;2023-04-25T13:44:08;7.10;;;2.20;;
36233;SDS011;43467;50.890;5.982;2023-04-25T13:46:34;8.23;;;2.70;;
36233;SDS011;43467;50.890;5.982;2023-04-25T13:48:59;8.05;;;2.08;;
36233;SDS011;43467;50.890;5.982;2023-04-25T13:51:26;6.00;;;2.00;;
36233;SDS011;43467;50.890;5.982;2023-04-25T13:53:51;6.90;;;2.15;;
36233;SDS011;43467;50.890;5.982;2023-04-25T13:56:17;4.72;;;2.40;;
36233;SDS011;43467;50.890;5.982;2023-04-25T13:58:44;8.18;;;3.08;;
36233;SDS011;43467;50.890;5.982;2023-04-25T14:01:10;9.02;;;2.65;;
36233;SDS011;43467;50.890;5.982;2023-04-25T14:03:35;5.70;;;2.17;;
36233;SDS011;43467;50.890;5.982;2023-04-25T14:06:01;8.82;;;2.50;;
36233;SDS011;43467;50.890;5.982;2023-04-25T14:08:26;9.43;;;3.03;;
36233;SDS011;43467;50.890;5.982;2023-04-25T14:10:52;6.53;;;3.08;;
36233;SDS011;43467;50.890;5.982;2023-04-25T14:13:17;5.80;;;2.95;;
36233;SDS011;43467;50.890;5.982;2023-04-25T14:15:43;4.63;;;2.38;;
36233;SDS011;43467;50.890;5.982;2023-04-25T14:18:09;10.48;;;3.05;;
36233;SDS011;43467;50.890;5.982;2023-04-25T14:20:34;7.93;;;2.70;;
36233;SDS011;43467;50.890;5.982;2023-04-25T14:23:00;5.75;;;2.35;;
36233;SDS011;43467;50.890;5.982;2023-04-25T14:25:26;6.10;;;2.33;;
36233;SDS011;43467;50.890;5.982;2023-04-25T14:27:52;6.00;;;2.03;;
36233;SDS011;43467;50.890;5.982;2023-04-25T14:30:18;9.70;;;2.53;;
36233;SDS011;43467;50.890;5.982;2023-04-25T14:32:44;9.48;;;2.55;;
36233;SDS011;43467;50.890;5.982;2023-04-25T14:35:10;7.90;;;2.38;;
36233;SDS011;43467;50.890;5.982;2023-04-25T14:37:36;10.93;;;3.10;;
36233;SDS011;43467;50.890;5.982;2023-04-25T14:40:02;8.15;;;2.33;;
36233;SDS011;43467;50.890;5.982;2023-04-25T14:42:28;5.97;;;2.58;;
36233;SDS011;43467;50.890;5.982;2023-04-25T14:44:53;7.28;;;2.10;;